Time;durP1;ratioP1;P1;durP2;ratioP2;P2;SDS_P1;SDS_P2;PMS_P1;PMS_P2;Temp;Humidity;BMP_temperature;BMP_pressure;BME280_temperature;BME280_humidity;BME280_pressure;Samples;Min_cycle;Max_cycle;Signal;HPM_P1;HPM_P2
2022/02/02 00:01:14;;;;;;;45.35;7.70;;;;;;;7.36;100.00;101482.72;5071095;28;20067;-37
2022/02/02 00:03:46;;;;;;;58.45;8.30;;;;;;;7.35;100.00;101492.13;5070394;28;20063;-36
2022/02/02 00:06:19;;;;;;;45.03;7.38;;;;;;;7.34;100.00;101507.13;5071066;28;20056;-37
2022/02/02 00:08:55;;;;;;;52.10;7.38;;;;;;;7.34;100.00;101501.56;5070138;28;20056;-36
2022/02/02 00:14:35;;;;;;;44.72;7.10;;;;;;;7.37;100.00;101489.94;5070794;28;20045;-35
2022/02/02 00:17:08;;;;;;;39.90;6.70;;;;;;;7.38;100.00;101494.41;5070598;28;20047;-37
2022/02/02 00:19:42;;;;;;;54.03;7.80;;;;;;;7.40;100.00;101501.34;5070995;28;20048;-36
2022/02/02 00:22:14;;;;;;;50.08;7.68;;;;;;;7.43;100.00;101506.38;5070582;28;20052;-37
2022/02/02 00:25:01;;;;;;;43.60;7.35;;;;;;;7.45;100.00;101514.44;5070288;28;20054;-36
2022/02/02 00:27:29;;;;;;;48.05;7.70;;;;;;;7.46;100.00;101503.06;5071296;28;20048;-36
2022/02/02 00:30:01;;;;;;;40.60;6.57;;;;;;;7.47;100.00;101501.13;5069990;28;20040;-34
2022/02/02 00:32:47;;;;;;;57.67;8.37;;;;;;;7.47;100.00;101507.53;5070224;28;20047;-36
2022/02/02 00:35:18;;;;;;;55.08;8.43;;;;;;;7.44;100.00;101513.59;5070662;28;20278;-38
2022/02/02 00:37:46;;;;;;;49.00;8.25;;;;;;;7.43;100.00;101511.91;5067005;28;20052;-39
2022/02/02 00:40:15;;;;;;;44.95;7.60;;;;;;;7.43;100.00;101511.09;5071026;28;20051;-37
2022/02/02 00:42:45;;;;;;;47.15;7.35;;;;;;;7.42;100.00;101510.25;5070416;28;20041;-35
2022/02/02 00:45:13;;;;;;;48.95;7.43;;;;;;;7.42;100.00;101521.34;5069973;28;20037;-39
2022/02/02 00:47:43;;;;;;;49.33;7.55;;;;;;;7.40;100.00;101518.00;5070530;28;20078;-33
2022/02/02 00:50:11;;;;;;;48.97;7.80;;;;;;;7.39;100.00;101524.69;5070539;28;20062;-30
2022/02/02 00:52:39;;;;;;;55.17;8.32;;;;;;;7.38;100.00;101524.94;5070370;28;20424;-33
2022/02/02 00:55:07;;;;;;;48.83;7.35;;;;;;;7.37;100.00;101534.38;5065400;28;20489;-38
2022/02/02 00:57:36;;;;;;;49.67;6.97;;;;;;;7.35;100.00;101531.00;5074560;28;20052;-37
2022/02/02 01:00:06;;;;;;;47.78;7.43;;;;;;;7.34;100.00;101518.22;5073600;28;20040;-40
2022/02/02 01:02:33;;;;;;;45.00;7.10;;;;;;;7.32;100.00;101526.81;5072839;28;20044;-43
2022/02/02 01:05:01;;;;;;;41.65;7.32;;;;;;;7.32;100.00;101523.19;5073409;28;20484;-38
2022/02/02 01:07:43;;;;;;;44.90;7.10;;;;;;;7.31;100.00;101527.91;5074347;28;20045;-32
2022/02/02 01:10:16;;;;;;;42.37;7.37;;;;;;;7.31;100.00;101536.25;5073929;28;20057;-39
2022/02/02 01:12:53;;;;;;;41.67;7.07;;;;;;;7.32;100.00;101540.69;5072824;28;20290;-33
2022/02/02 01:16:14;;;;;;;44.88;7.72;;;;;;;7.33;100.00;101542.38;5073888;28;20052;-35
2022/02/02 01:18:33;;;;;;;43.72;7.03;;;;;;;7.33;100.00;101534.03;5074043;28;20048;-42
2022/02/02 01:21:03;;;;;;;45.97;7.18;;;;;;;7.35;100.00;101544.88;5064861;28;20048;-40
2022/02/02 01:29:00;;;;;;;51.28;7.18;;;;;;;7.37;100.00;101562.97;5040470;28;20052;-40
2022/02/02 01:31:28;;;;;;;49.80;7.35;;;;;;;7.37;100.00;101570.47;5073616;28;20075;-33
2022/02/02 01:33:56;;;;;;;48.63;7.75;;;;;;;7.38;100.00;101581.31;5072780;28;20041;-43
2022/02/02 01:36:24;;;;;;;53.08;7.68;;;;;;;7.39;100.00;101582.16;5073825;28;20050;-42
2022/02/02 01:38:53;;;;;;;48.88;7.20;;;;;;;7.39;100.00;101580.22;5073795;28;20041;-33
2022/02/02 01:41:29;;;;;;;40.42;6.95;;;;;;;7.41;100.00;101577.97;5072806;28;20032;-40
2022/02/02 01:44:04;;;;;;;56.70;7.15;;;;;;;7.42;100.00;101578.81;5073650;28;20048;-35
2022/02/02 01:46:35;;;;;;;45.70;7.22;;;;;;;7.42;100.00;101567.72;5073616;28;20464;-33
2022/02/02 01:51:58;;;;;;;45.47;6.57;;;;;;;7.42;100.00;101576.88;5073128;28;20140;-39
2022/02/02 01:54:48;;;;;;;49.13;7.55;;;;;;;7.44;100.00;101573.84;5072470;28;20409;-31
2022/02/02 01:57:32;;;;;;;40.00;7.38;;;;;;;7.44;100.00;101576.63;5065445;28;20050;-41
2022/02/02 02:00:00;;;;;;;48.55;7.82;;;;;;;7.45;100.00;101592.19;5073481;28;20066;-38
2022/02/02 02:02:29;;;;;;;35.35;6.38;;;;;;;7.46;100.00;101591.94;5072431;28;20052;-40
2022/02/02 02:04:57;;;;;;;39.47;6.38;;;;;;;7.46;100.00;101596.66;5072267;28;20048;-36
2022/02/02 02:07:25;;;;;;;41.38;7.50;;;;;;;7.45;100.00;101609.69;5073299;28;20054;-37
2022/02/02 02:09:54;;;;;;;47.88;7.85;;;;;;;7.46;100.00;101618.84;5072261;28;20057;-37
2022/02/02 02:12:22;;;;;;;45.17;7.22;;;;;;;7.47;100.00;101618.59;5072905;28;20049;-34
2022/02/02 02:14:54;;;;;;;40.17;6.50;;;;;;;7.47;100.00;101617.75;5073107;28;20059;-41
2022/02/02 02:17:24;;;;;;;47.55;7.18;;;;;;;7.48;100.00;101608.34;5072256;28;20044;-34
2022/02/02 02:19:53;;;;;;;52.28;6.88;;;;;;;7.50;100.00;101606.13;5073169;28;20060;-35
2022/02/02 02:22:24;;;;;;;42.17;7.07;;;;;;;7.50;100.00;101600.59;5071221;28;20063;-38
2022/02/02 02:24:53;;;;;;;42.72;6.57;;;;;;;7.50;100.00;101606.13;5062662;28;20040;-32
2022/02/02 02:27:23;;;;;;;49.33;7.20;;;;;;;7.51;100.00;101610.59;5072813;28;20044;-37
2022/02/02 02:30:07;;;;;;;47.22;7.57;;;;;;;7.51;100.00;101613.38;5071926;28;20048;-36
2022/02/02 02:32:58;;;;;;;45.42;7.10;;;;;;;7.51;100.00;101600.31;5072902;28;20058;-41
2022/02/02 02:38:44;;;;;;;19.25;2.88;;;;;;;7.43;100.00;101622.16;5071628;28;20054;-33
2022/02/02 02:57:51;;;;;;;21.65;2.53;;;;;;;6.78;100.00;101603.56;5070868;28;20136;-35
2022/02/02 03:00:29;;;;;;;17.13;3.28;;;;;;;6.74;100.00;101617.09;5071975;28;20052;-38
2022/02/02 03:30:45;;;;;;;49.95;7.70;;;;;;;7.01;100.00;101608.00;5071405;28;20055;-36
2022/02/02 03:50:07;;;;;;;33.33;4.80;;;;;;;7.05;100.00;101629.44;5061894;28;20382;-42
2022/02/02 03:53:19;;;;;;;29.67;4.00;;;;;;;6.96;100.00;101619.91;5070166;28;20500;-40
2022/02/02 03:55:52;;;;;;;22.63;2.80;;;;;;;6.86;100.00;101630.84;5070531;28;20045;-37
2022/02/02 03:58:27;;;;;;;24.13;3.88;;;;;;;6.80;100.00;101623.53;5071737;28;20041;-38
2022/02/02 04:01:17;;;;;;;25.98;3.38;;;;;;;6.74;100.00;101628.19;5070469;28;20064;-36
2022/02/02 04:04:04;;;;;;;20.20;2.92;;;;;;;6.69;100.00;101618.97;5071100;28;20052;-40
2022/02/02 04:06:33;;;;;;;26.75;4.00;;;;;;;6.65;100.00;101626.09;5062696;28;20067;-34
2022/02/02 04:09:01;;;;;;;19.48;3.13;;;;;;;6.63;100.00;101628.28;5070391;28;20140;-34
2022/02/02 04:11:34;;;;;;;26.98;3.95;;;;;;;6.63;100.00;101625.50;5070910;28;20067;-34
2022/02/02 04:53:37;;;;;;;48.08;7.25;;;;;;;6.81;100.00;101686.25;5070617;28;20048;-37
2022/02/02 04:56:15;;;;;;;45.30;6.85;;;;;;;6.80;100.00;101685.41;5069768;28;20063;-39
2022/02/02 04:58:53;;;;;;;43.72;6.47;;;;;;;6.82;100.00;101701.81;5069259;28;20084;-37
2022/02/02 05:04:58;;;;;;;44.10;6.88;;;;;;;6.84;100.00;101702.38;5067777;28;20060;-36
2022/02/02 05:07:33;;;;;;;44.22;6.60;;;;;;;6.84;100.00;101694.91;5061640;28;20051;-35
2022/02/02 05:10:12;;;;;;;45.38;7.22;;;;;;;6.86;100.00;101700.22;5070214;28;20048;-41
2022/02/02 05:15:53;;;;;;;38.28;5.65;;;;;;;6.87;100.00;101718.53;5070918;28;20048;-37
2022/02/02 05:18:46;;;;;;;45.17;7.25;;;;;;;6.86;100.00;101719.63;5069483;28;20410;-41
2022/02/02 05:21:47;;;;;;;40.67;6.05;;;;;;;6.87;100.00;101719.38;5070401;28;20047;-33
2022/02/02 05:49:02;;;;;;;37.25;5.55;;;;;;;6.97;100.00;101748.38;5073612;28;19947;-36
2022/02/02 05:51:42;;;;;;;38.25;6.03;;;;;;;6.98;100.00;101758.41;5071818;28;20403;-32
2022/02/02 05:54:09;;;;;;;34.13;5.03;;;;;;;6.98;100.00;101763.94;5072754;28;20049;-39
2022/02/02 05:56:43;;;;;;;27.65;4.43;;;;;;;6.95;100.00;101756.97;5073155;28;20400;-36
2022/02/02 05:59:11;;;;;;;21.52;3.85;;;;;;;6.94;100.00;101755.28;5073608;28;20442;-35
2022/02/02 06:01:45;;;;;;;28.25;4.63;;;;;;;6.93;100.00;101761.91;5072669;28;20128;-36
2022/02/02 06:04:22;;;;;;;23.25;3.75;;;;;;;6.91;100.00;101753.00;5073495;28;20044;-37
2022/02/02 06:06:50;;;;;;;19.38;2.78;;;;;;;6.89;100.00;101749.63;5069906;28;20056;-39
2022/02/02 06:09:20;;;;;;;16.67;2.67;;;;;;;6.87;100.00;101749.88;5072318;28;20048;-43
2022/02/02 06:11:52;;;;;;;17.60;2.67;;;;;;;6.87;100.00;101757.38;5071917;28;20071;-42
2022/02/02 06:14:24;;;;;;;21.15;2.92;;;;;;;6.84;100.00;101763.41;5072444;28;20102;-42
2022/02/02 06:16:53;;;;;;;15.45;2.38;;;;;;;6.83;100.00;101768.13;5071583;28;20048;-40
2022/02/02 06:19:25;;;;;;;18.38;3.03;;;;;;;6.82;100.00;101769.22;5073532;28;20052;-35
2022/02/02 06:21:57;;;;;;;19.85;3.00;;;;;;;6.82;100.00;101760.91;5072268;28;20401;-36
2022/02/02 06:24:32;;;;;;;18.95;2.95;;;;;;;6.83;100.00;101761.75;5073114;28;20052;-34
2022/02/02 06:27:09;;;;;;;16.40;2.88;;;;;;;6.81;100.00;101769.47;5072683;28;20049;-36
2022/02/02 06:29:42;;;;;;;19.85;2.58;;;;;;;6.80;100.00;101781.66;5069557;28;20054;-38
2022/02/02 06:32:13;;;;;;;20.90;2.85;;;;;;;6.79;100.00;101774.44;5071342;28;20112;-32
2022/02/02 06:34:44;;;;;;;16.20;2.92;;;;;;;6.75;100.00;101784.38;5068991;28;20139;-33
2022/02/02 06:37:13;;;;;;;20.90;3.40;;;;;;;6.71;100.00;101781.25;5070691;28;20489;-33
2022/02/02 06:39:41;;;;;;;18.92;3.10;;;;;;;6.68;100.00;101794.78;5072711;28;20516;-41
2022/02/02 06:42:10;;;;;;;21.63;3.13;;;;;;;6.64;100.00;101791.66;5072180;28;20053;-34
2022/02/02 06:44:40;;;;;;;18.63;3.03;;;;;;;6.61;100.00;101803.25;5071722;28;20040;-41
2022/02/02 06:47:08;;;;;;;19.50;2.70;;;;;;;6.59;100.00;101805.44;5072700;28;20049;-39
2022/02/02 06:49:39;;;;;;;25.10;3.10;;;;;;;6.55;100.00;101805.09;5071523;28;20394;-36
2022/02/02 06:52:18;;;;;;;20.23;3.65;;;;;;;6.53;100.00;101806.44;5071985;28;20056;-31
2022/02/02 06:54:54;;;;;;;23.77;2.97;;;;;;;6.50;100.00;101796.69;5069851;28;20049;-36
2022/02/02 06:57:37;;;;;;;19.10;2.85;;;;;;;6.48;100.00;101800.78;5070427;28;20040;-32
2022/02/02 07:00:14;;;;;;;;;;;;;;;6.43;100.00;101811.78;5071640;28;20063;-37
2022/02/02 07:02:53;;;;;;;20.10;2.83;;;;;;;6.40;100.00;101810.34;5070895;28;20019;-31
2022/02/02 07:05:31;;;;;;;14.60;2.20;;;;;;;6.43;100.00;101817.31;5070282;28;20052;-38
2022/02/02 07:08:35;;;;;;;18.00;2.45;;;;;;;6.43;100.00;101832.03;5070883;28;20052;-33
2022/02/02 07:11:24;;;;;;;18.30;2.67;;;;;;;6.42;100.00;101835.03;5067993;28;20352;-36
2022/02/02 07:14:10;;;;;;;19.23;3.22;;;;;;;6.43;100.00;101832.03;5068728;28;20052;-30
2022/02/02 07:16:51;;;;;;;19.25;2.83;;;;;;;6.44;100.00;101833.72;5060153;28;20040;-37
2022/02/02 07:19:32;;;;;;;17.58;2.80;;;;;;;6.48;100.00;101840.44;5066229;28;20059;-34
2022/02/02 07:22:17;;;;;;;16.58;2.22;;;;;;;6.49;100.00;101844.06;5070325;28;20037;-35
2022/02/02 07:25:18;;;;;;;18.02;2.35;;;;;;;6.51;100.00;101848.28;5069110;28;20557;-34
2022/02/02 07:27:55;;;;;;;21.98;3.08;;;;;;;6.52;100.00;101843.56;5069432;28;20075;-33
2022/02/02 07:30:42;;;;;;;19.35;2.65;;;;;;;6.52;100.00;101838.88;5071359;28;20066;-35
2022/02/02 07:33:18;;;;;;;20.65;2.63;;;;;;;6.51;100.00;101855.75;5070880;28;20029;-40
2022/02/02 07:36:00;;;;;;;18.27;2.70;;;;;;;6.52;100.00;101874.06;5071555;28;20064;-40
2022/02/02 07:38:46;;;;;;;22.00;3.33;;;;;;;6.51;100.00;101875.16;5071391;28;20056;-41
2022/02/02 07:41:31;;;;;;;18.02;3.00;;;;;;;6.52;100.00;101880.47;5070874;28;20048;-39
2022/02/02 07:44:05;;;;;;;18.65;2.80;;;;;;;6.52;100.00;101876.84;5063039;28;20044;-34
2022/02/02 07:46:37;;;;;;;16.70;2.72;;;;;;;6.54;100.00;101885.75;5068427;28;20058;-33
2022/02/02 07:49:07;;;;;;;20.65;3.03;;;;;;;6.55;100.00;101885.53;5071182;28;20500;-37
2022/02/02 07:51:38;;;;;;;26.60;3.33;;;;;;;6.55;100.00;101890.22;5071435;28;20143;-37
2022/02/02 07:54:10;;;;;;;19.20;3.35;;;;;;;6.59;100.00;101887.81;5061724;28;20128;-38
2022/02/02 07:56:42;;;;;;;15.40;2.95;;;;;;;6.62;100.00;101899.22;5071420;28;20044;-40
2022/02/02 07:59:17;;;;;;;24.88;3.65;;;;;;;6.65;100.00;101895.09;5071061;28;20048;-38
2022/02/02 08:01:48;;;;;;;24.25;3.90;;;;;;;6.67;100.00;101892.94;5070218;28;20497;-35
2022/02/02 08:04:18;;;;;;;18.15;3.10;;;;;;;6.70;100.00;101896.06;5071060;28;20118;-38
2022/02/02 08:06:51;;;;;;;24.55;3.90;;;;;;;6.71;100.00;101900.50;5070290;28;20048;-32
2022/02/02 08:09:28;;;;;;;21.50;3.83;;;;;;;6.75;100.00;101906.41;5070944;28;20056;-39
2022/02/02 08:11:57;;;;;;;34.38;4.28;;;;;;;6.78;100.00;101897.59;5071221;28;20135;-36
2022/02/02 08:14:32;;;;;;;23.02;4.00;;;;;;;6.81;100.00;101897.06;5070507;28;20440;-38
2022/02/02 08:17:01;;;;;;;29.25;4.00;;;;;;;6.83;100.00;101901.28;5071304;28;20124;-34
2022/02/02 08:19:29;;;;;;;27.67;3.92;;;;;;;6.86;100.00;101911.91;5070772;28;20052;-41
2022/02/02 08:21:56;;;;;;;29.45;4.30;;;;;;;6.89;100.00;101910.56;5070123;28;20057;-36
2022/02/02 08:24:26;;;;;;;28.85;4.13;;;;;;;6.94;100.00;101912.59;5071271;28;20054;-35
2022/02/02 08:26:55;;;;;;;25.60;3.75;;;;;;;6.96;100.00;101916.81;5060350;28;20045;-41
2022/02/02 08:29:24;;;;;;;34.70;3.75;;;;;;;6.99;100.00;101921.88;5070110;28;20048;-38
2022/02/02 08:31:52;;;;;;;21.27;3.45;;;;;;;7.02;100.00;101920.50;5070786;28;20086;-34
2022/02/02 08:34:21;;;;;;;30.73;3.83;;;;;;;7.02;100.00;101924.09;5070625;28;20044;-38
2022/02/02 08:36:53;;;;;;;30.05;4.70;;;;;;;7.02;100.00;101931.59;5069704;28;20161;-35
2022/02/02 08:39:29;;;;;;;20.80;4.33;;;;;;;7.03;100.00;101938.81;5071103;28;20484;-35
2022/02/02 08:42:02;;;;;;;34.47;4.53;;;;;;;7.12;100.00;101952.06;5066675;28;20128;-40
2022/02/02 08:44:42;;;;;;;34.28;4.70;;;;;;;7.24;100.00;101949.22;5060553;28;20048;-34
2022/02/02 08:47:13;;;;;;;24.95;3.80;;;;;;;7.40;100.00;101939.22;5067214;28;20052;-40
2022/02/02 08:49:49;;;;;;;39.88;5.63;;;;;;;7.57;100.00;101940.91;5070218;28;20075;-38
2022/02/02 08:52:17;;;;;;;29.80;4.90;;;;;;;7.77;100.00;101948.75;5067221;28;20049;-37
2022/02/02 08:54:48;;;;;;;35.58;6.15;;;;;;;7.97;100.00;101944.59;5059637;28;20593;-40
2022/02/02 08:57:41;;;;;;;28.15;4.70;;;;;;;8.19;100.00;101948.25;5068790;28;20045;-42
2022/02/02 09:00:12;;;;;;;34.05;5.82;;;;;;;8.42;100.00;101945.22;5061259;28;20062;-44
2022/02/02 09:02:52;;;;;;;33.53;4.93;;;;;;;8.67;100.00;101958.63;5067235;28;20055;-39
2022/02/02 09:05:24;;;;;;;35.88;4.57;;;;;;;8.94;100.00;101956.72;5069867;28;20051;-38
2022/02/02 09:08:10;;;;;;;40.28;6.32;;;;;;;9.27;100.00;101961.25;5069740;28;20056;-38
2022/02/02 09:24:46;;;;;;;29.75;5.13;;;;;;;11.19;100.00;101963.50;5073391;28;20053;-35
2022/02/02 09:33:09;;;;;;;26.40;4.53;;;;;;;12.16;100.00;101971.94;5073235;28;20048;-32
2022/02/02 09:35:37;;;;;;;26.38;4.43;;;;;;;12.39;100.00;101974.94;5073885;28;20045;-36
2022/02/02 09:38:06;;;;;;;26.23;4.45;;;;;;;12.64;100.00;101978.78;5073955;28;20265;-41
2022/02/02 09:43:30;;;;;;;27.30;5.22;;;;;;;13.14;100.00;101983.31;5124360;27;20918;-43
2022/02/02 09:46:03;;;;;;;29.33;4.95;;;;;;;13.33;100.00;101983.53;5117063;28;20044;-43
2022/02/02 09:48:35;;;;;;;30.80;5.10;;;;;;;13.57;100.00;101984.47;5116697;27;20077;-36
2022/02/02 09:51:07;;;;;;;;;;;;;;;13.79;100.00;101986.78;5117407;28;20054;-36
2022/02/02 09:53:41;;;;;;;23.08;4.57;;;;;;;13.98;100.00;101999.00;5116365;27;19927;-40
2022/02/02 09:56:25;;;;;;;26.20;4.93;;;;;;;14.20;100.00;102000.47;5117023;28;20051;-39
2022/02/02 09:59:26;;;;;;;24.95;5.20;;;;;;;14.32;100.00;102001.75;5114497;27;20047;-37
2022/02/02 10:02:29;;;;;;;23.15;4.85;;;;;;;14.54;100.00;102006.88;5120073;28;20527;-38
2022/02/02 10:05:04;;;;;;;;;;;;;;;14.64;99.67;102012.38;5124789;28;20070;-36
2022/02/02 10:10:47;;;;;;;27.85;5.25;;;;;;;14.96;100.00;102013.69;5111300;28;20059;-36
2022/02/02 10:13:25;;;;;;;26.75;5.03;;;;;;;15.08;99.92;102022.53;5114836;27;20078;-38
2022/02/02 10:15:58;;;;;;;21.90;4.40;;;;;;;15.24;98.20;102023.97;5120165;27;20040;-38
2022/02/02 10:18:32;;;;;;;30.67;5.32;;;;;;;15.39;96.42;102026.56;5121820;27;20048;-43
2022/02/02 10:21:00;;;;;;;19.33;4.30;;;;;;;15.44;95.08;102023.69;5115125;28;20046;-40
2022/02/02 10:23:30;;;;;;;23.77;4.45;;;;;;;15.60;93.95;102029.13;5114499;27;20068;-36
2022/02/02 10:26:16;;;;;;;21.40;4.78;;;;;;;15.69;91.73;102039.41;5122535;27;20423;-39
2022/02/02 10:28:44;;;;;;;19.67;4.80;;;;;;;15.75;90.99;102052.25;5120997;28;20062;-37
2022/02/02 10:31:13;;;;;;;21.65;4.57;;;;;;;15.89;90.01;102052.31;5114343;28;20518;-36
2022/02/02 10:33:42;;;;;;;22.00;5.15;;;;;;;16.05;89.22;102056.53;5114739;27;20047;-36
2022/02/02 10:36:16;;;;;;;24.13;5.20;;;;;;;16.14;87.59;102053.88;5112182;28;20078;-44
2022/02/02 10:39:01;;;;;;;22.17;5.07;;;;;;;16.22;85.80;102060.75;5115895;27;20145;-39
2022/02/02 10:41:43;;;;;;;18.58;4.22;;;;;;;16.28;85.92;102065.19;5112754;28;20052;-40
2022/02/02 10:44:29;;;;;;;23.98;4.72;;;;;;;16.36;84.98;102075.75;5114045;27;20067;-42
2022/02/02 10:47:10;;;;;;;22.60;5.00;;;;;;;16.46;84.02;102078.38;5119599;27;20048;-37
2022/02/02 10:49:51;;;;;;;26.17;5.13;;;;;;;16.48;83.27;102076.91;5120650;28;20052;-37
2022/02/02 10:52:29;;;;;;;22.17;4.78;;;;;;;16.46;81.95;102075.56;5117787;28;20053;-36
2022/02/02 10:55:32;;;;;;;20.08;4.35;;;;;;;16.36;81.24;102068.13;5100074;28;20142;-42
2022/02/02 10:58:21;;;;;;;20.13;4.30;;;;;;;16.29;81.31;102050.78;5101299;28;20052;-34
2022/02/02 11:00:54;;;;;;;23.88;5.55;;;;;;;16.24;81.23;102053.69;5102584;28;20139;-38
2022/02/02 11:06:37;;;;;;;20.67;4.90;;;;;;;16.30;81.22;102069.34;5099548;28;20130;-37
2022/02/02 11:09:06;;;;;;;24.45;5.05;;;;;;;16.41;80.43;102081.28;5105338;28;20075;-39
2022/02/02 11:11:39;;;;;;;21.92;4.65;;;;;;;16.46;80.21;102098.94;5106045;28;20469;-40
2022/02/02 11:14:14;;;;;;;20.52;4.60;;;;;;;16.38;79.59;102102.47;5102744;28;20047;-44
2022/02/02 11:16:50;;;;;;;20.20;4.20;;;;;;;16.22;79.45;102105.81;5099488;28;20055;-38
2022/02/02 11:19:24;;;;;;;20.63;4.22;;;;;;;15.96;79.79;102097.81;5104924;28;20055;-39
2022/02/02 11:21:51;;;;;;;18.60;3.92;;;;;;;15.74;80.21;102104.06;5106094;28;20408;-37
2022/02/02 11:24:38;;;;;;;22.50;5.03;;;;;;;15.62;80.54;102102.81;5101852;28;20044;-42
2022/02/02 11:27:06;;;;;;;21.30;4.32;;;;;;;15.55;80.86;102088.25;5099430;28;20048;-32
2022/02/02 11:29:42;;;;;;;23.27;4.70;;;;;;;15.61;80.91;102081.44;5104568;28;20044;-41
2022/02/02 11:32:12;;;;;;;22.27;4.82;;;;;;;15.67;80.60;102072.63;5105466;28;20051;-34
2022/02/02 11:34:41;;;;;;;22.98;5.18;;;;;;;15.77;80.24;102069.69;5104831;28;20404;-34
2022/02/02 11:37:12;;;;;;;22.23;4.80;;;;;;;15.77;79.86;102064.06;5105549;28;20101;-40
2022/02/02 11:39:46;;;;;;;21.20;4.82;;;;;;;15.68;79.45;102070.66;5100332;28;20040;-35
2022/02/02 11:42:45;;;;;;;17.17;3.85;;;;;;;15.64;79.28;102070.41;5101182;28;20048;-37
2022/02/02 11:45:35;;;;;;;20.27;4.75;;;;;;;15.59;79.39;102078.13;5099418;28;20047;-41
2022/02/02 11:48:08;;;;;;;19.85;4.38;;;;;;;15.54;80.17;102078.16;5098037;28;20056;-40
2022/02/02 11:50:49;;;;;;;22.88;4.53;;;;;;;15.48;80.25;102078.22;5102769;28;20423;-36
2022/02/02 11:53:50;;;;;;;24.98;5.28;;;;;;;15.46;80.27;102083.31;5097267;28;20040;-35
2022/02/02 11:56:19;;;;;;;20.13;3.72;;;;;;;15.46;81.08;102074.03;5104903;28;20064;-39
2022/02/02 11:58:47;;;;;;;19.25;4.70;;;;;;;15.43;80.94;102078.28;5096802;28;20055;-43
2022/02/02 12:01:40;;;;;;;17.13;3.42;;;;;;;15.39;80.42;102071.56;5102805;28;20050;-41
2022/02/02 12:04:26;;;;;;;15.27;3.17;;;;;;;15.35;81.09;102081.78;5096678;28;20131;-43
2022/02/02 12:07:00;;;;;;;26.38;4.78;;;;;;;15.32;81.12;102081.53;5104950;28;20044;-37
2022/02/02 12:09:42;;;;;;;16.80;3.47;;;;;;;15.26;81.39;102085.56;5096761;28;20048;-39
2022/02/02 12:21:29;;;;;;;18.60;3.88;;;;;;;14.76;83.70;102076.59;5105978;28;20043;-38
2022/02/02 12:49:44;;;;;;;15.73;2.95;;;;;;;13.58;91.07;102066.66;5103219;28;20050;-39
2022/02/02 12:57:51;;;;;;;17.92;2.85;;;;;;;13.19;92.66;102058.97;5102967;28;20503;-39
2022/02/02 13:00:22;;;;;;;16.35;3.05;;;;;;;13.15;93.80;102057.03;5097630;28;20083;-37
2022/02/02 13:02:52;;;;;;;17.87;4.20;;;;;;;13.04;93.46;102065.47;5099773;28;20050;-40
2022/02/02 13:05:24;;;;;;;14.88;3.10;;;;;;;12.80;94.14;102063.59;5097230;28;20289;-35
2022/02/02 13:07:54;;;;;;;19.15;3.50;;;;;;;12.59;96.09;102063.63;5100742;28;20065;-39
2022/02/02 13:10:23;;;;;;;19.33;3.03;;;;;;;12.43;96.88;102065.63;5097439;28;20085;-38
2022/02/02 13:13:05;;;;;;;17.45;3.65;;;;;;;12.26;97.82;102061.47;5100229;28;20036;-33
2022/02/02 13:15:39;;;;;;;15.48;3.45;;;;;;;12.06;99.14;102062.31;5098063;28;20048;-39
2022/02/02 13:18:19;;;;;;;9.13;1.95;;;;;;;11.97;100.00;102056.47;5101922;28;20127;-39
2022/02/02 13:21:02;;;;;;;12.70;2.38;;;;;;;12.00;100.00;102061.47;5105137;28;20415;-41
2022/02/02 13:23:38;;;;;;;16.35;3.00;;;;;;;11.94;100.00;102067.34;5101898;28;20052;-40
2022/02/02 13:26:17;;;;;;;19.95;3.88;;;;;;;11.75;100.00;102069.84;5096827;28;20123;-35
2022/02/02 13:28:51;;;;;;;15.43;3.28;;;;;;;11.56;100.00;102066.72;5100509;28;20047;-40
2022/02/02 13:31:49;;;;;;;17.58;3.03;;;;;;;11.52;100.00;102070.34;5096273;28;20047;-39
2022/02/02 13:34:29;;;;;;;20.75;2.95;;;;;;;11.45;100.00;102062.22;5101066;28;20446;-38
2022/02/02 13:37:31;;;;;;;18.90;2.95;;;;;;;11.46;100.00;102077.03;5105286;28;20054;-34
2022/02/02 13:43:00;;;;;;;15.95;3.17;;;;;;;11.37;100.00;102076.72;5107044;28;20496;-38
2022/02/02 13:48:45;;;;;;;11.88;2.50;;;;;;;11.25;100.00;102073.31;5089653;28;20051;-35
2022/02/02 13:54:33;;;;;;;14.70;2.60;;;;;;;11.19;100.00;102075.25;5102460;28;20083;-37
2022/02/02 13:57:13;;;;;;;13.25;2.22;;;;;;;11.18;100.00;102072.75;5104795;28;20487;-38
2022/02/02 14:05:58;;;;;;;11.82;2.25;;;;;;;11.32;100.00;102062.75;5076200;28;20074;-32
2022/02/02 14:26:06;;;;;;;14.35;2.40;;;;;;;10.88;100.00;102065.91;5096575;28;20447;-40
2022/02/02 14:31:23;;;;;;;9.65;1.70;;;;;;;10.61;100.00;102057.66;5103990;28;20039;-40
2022/02/02 14:33:55;;;;;;;14.20;2.33;;;;;;;10.62;100.00;102070.50;5108197;28;20589;-39
2022/02/02 14:36:28;;;;;;;11.18;2.05;;;;;;;10.64;100.00;102076.66;5104543;27;20058;-30
2022/02/02 14:39:02;;;;;;;9.95;2.10;;;;;;;10.55;100.00;102072.72;5109936;28;20044;-37
2022/02/02 14:41:37;;;;;;;11.70;1.50;;;;;;;10.48;100.00;102076.84;5103150;28;20397;-31
2022/02/02 14:44:10;;;;;;;9.73;2.00;;;;;;;10.46;100.00;102084.63;5109795;28;20093;-39
2022/02/02 14:46:43;;;;;;;12.45;1.98;;;;;;;10.40;100.00;102086.53;5104123;28;20056;-41
2022/02/02 14:49:15;;;;;;;11.75;1.77;;;;;;;10.39;100.00;102084.06;5105748;28;20422;-32
2022/02/02 14:51:55;;;;;;;;;;;;;;;10.31;100.00;102080.66;5103833;28;20138;-41
2022/02/02 14:55:02;;;;;;;13.82;1.85;;;;;;;10.22;100.00;102082.22;5106873;28;20344;-38
2022/02/02 15:06:46;;;;;;;13.20;2.28;;;;;;;9.74;100.00;102080.41;5102312;28;20064;-43
2022/02/02 15:28:48;;;;;;;13.40;2.10;;;;;;;8.89;100.00;102095.84;5086473;28;20056;-40
2022/02/02 15:31:16;;;;;;;19.60;3.03;;;;;;;8.82;100.00;102094.34;5098269;28;20043;-37
2022/02/02 15:33:47;;;;;;;14.13;2.47;;;;;;;8.75;100.00;102088.13;5098762;27;20048;-34
2022/02/02 15:36:46;;;;;;;14.50;2.50;;;;;;;8.65;100.00;102099.94;5106994;28;20122;-36
2022/02/02 15:39:14;;;;;;;15.77;2.58;;;;;;;8.58;100.00;102097.38;5104589;28;20040;-35
2022/02/02 15:41:57;;;;;;;12.57;1.90;;;;;;;8.57;100.00;102109.59;5098528;28;20048;-38
2022/02/02 15:56:10;;;;;;;7.53;1.80;;;;;;;8.53;100.00;102127.88;5101914;28;20047;-35
2022/02/02 15:58:28;;;;;;;8.57;2.10;;;;;;;8.45;100.00;102125.53;5099543;27;20100;-37
2022/02/02 16:03:44;;;;;;;12.10;2.30;;;;;;;8.50;100.00;102121.97;5103247;28;20048;-33
2022/02/02 16:06:16;;;;;;;8.88;1.95;;;;;;;8.50;100.00;102121.97;5103086;28;20138;-42
2022/02/02 16:08:46;;;;;;;9.65;2.42;;;;;;;8.52;100.00;102125.34;5102710;28;20058;-40
2022/02/02 16:11:24;;;;;;;8.10;1.75;;;;;;;8.50;100.00;102128.38;5104257;28;20040;-35
2022/02/02 16:13:56;;;;;;;10.10;2.40;;;;;;;8.45;100.00;102124.69;5102384;28;20052;-32
2022/02/02 16:16:42;;;;;;;12.57;2.45;;;;;;;8.44;100.00;102123.00;5102907;28;20524;-38
2022/02/02 16:19:19;;;;;;;17.73;4.00;;;;;;;8.43;100.00;102112.97;5101021;28;20040;-30
2022/02/02 16:24:47;;;;;;;15.75;3.47;;;;;;;8.48;100.00;102113.03;5100358;28;20866;-40
2022/02/02 16:33:17;;;;;;;12.30;2.75;;;;;;;8.40;100.00;102105.97;5103940;28;20515;-33
2022/02/02 16:38:33;;;;;;;15.70;2.63;;;;;;;8.38;100.00;102102.63;5097942;28;20051;-39
2022/02/02 16:41:05;;;;;;;14.05;2.70;;;;;;;8.38;100.00;102105.41;5096935;28;20032;-38
2022/02/02 16:43:32;;;;;;;14.25;2.50;;;;;;;8.36;100.00;102101.19;5104818;28;20063;-38
2022/02/02 16:46:01;;;;;;;9.40;2.15;;;;;;;8.37;100.00;102100.09;5103172;28;20124;-40
2022/02/02 16:48:29;;;;;;;15.75;2.38;;;;;;;8.37;100.00;102095.38;5094185;28;20048;-39
2022/02/02 16:51:01;;;;;;;14.60;3.08;;;;;;;8.37;100.00;102100.94;5099715;28;20043;-42
2022/02/02 16:53:38;;;;;;;16.42;2.88;;;;;;;8.33;100.00;102096.13;5105567;28;20058;-42
2022/02/02 16:56:11;;;;;;;12.63;3.03;;;;;;;8.31;100.00;102101.91;5100101;28;20062;-37
2022/02/02 17:24:28;;;;;;;12.65;2.95;;;;;;;8.12;100.00;102081.88;5103849;28;20047;-35
2022/02/02 17:29:56;;;;;;;9.88;2.60;;;;;;;8.15;100.00;102080.53;5104185;28;20051;-35